createdAt,value
2022-09-15T00:00:42.914Z,0.00
2022-09-15T00:01:42.990Z,0.00
2022-09-15T00:02:43.730Z,0.00
2022-09-15T00:03:43.633Z,0.00
2022-09-15T00:04:43.433Z,0.00
2022-09-15T00:05:42.822Z,0.00
2022-09-15T00:06:43.136Z,0.00
2022-09-15T00:07:43.261Z,0.00
2022-09-15T00:08:42.943Z,0.00
2022-09-15T00:09:43.066Z,0.00
2022-09-15T00:10:42.860Z,0.00
2022-09-15T00:11:42.771Z,0.00
2022-09-15T00:12:42.880Z,0.00
2022-09-15T00:13:42.892Z,0.00
2022-09-15T00:14:42.902Z,0.00
2022-09-15T00:15:42.999Z,0.00
2022-09-15T00:16:42.810Z,0.00
2022-09-15T00:17:42.713Z,0.00
2022-09-15T00:18:42.717Z,0.00
2022-09-15T00:19:42.717Z,0.00
2022-09-15T00:20:42.798Z,0.00
2022-09-15T00:21:42.735Z,0.00
2022-09-15T00:22:43.454Z,0.00
2022-09-15T00:23:42.645Z,0.00
2022-09-15T00:24:42.661Z,0.00
2022-09-15T00:25:42.567Z,0.00
2022-09-15T00:26:42.628Z,0.00
2022-09-15T00:27:42.635Z,0.00
2022-09-15T00:28:42.644Z,0.00
2022-09-15T00:29:42.594Z,0.00
2022-09-15T00:30:42.731Z,0.00
2022-09-15T00:31:42.594Z,0.00
2022-09-15T00:32:42.505Z,0.00
2022-09-15T00:33:42.574Z,0.00
2022-09-15T00:34:42.522Z,0.00
2022-09-15T00:35:42.493Z,0.00
2022-09-15T00:36:42.496Z,0.00
2022-09-15T00:37:42.436Z,0.00
2022-09-15T00:38:42.450Z,0.00
2022-09-15T00:39:42.447Z,0.00
2022-09-15T00:40:42.521Z,0.00
2022-09-15T00:41:43.447Z,0.00
2022-09-15T00:42:42.536Z,0.00
2022-09-15T00:43:42.531Z,0.00
2022-09-15T00:44:42.376Z,0.00
2022-09-15T00:45:42.478Z,0.00
2022-09-15T00:46:42.355Z,0.00
2022-09-15T00:47:42.364Z,0.00
2022-09-15T00:48:42.470Z,0.00
2022-09-15T00:49:42.407Z,0.00
2022-09-15T00:50:42.424Z,0.00
2022-09-15T00:51:42.421Z,0.00
2022-09-15T00:52:42.291Z,0.00
2022-09-15T00:53:42.304Z,0.00
2022-09-15T00:54:43.776Z,0.00
2022-09-15T00:55:42.630Z,0.00
2022-09-15T00:56:42.313Z,0.00
2022-09-15T00:57:42.265Z,0.00
2022-09-15T00:58:42.240Z,0.00
2022-09-15T00:59:42.337Z,0.00
2022-09-15T01:00:42.249Z,0.00
2022-09-15T01:01:42.635Z,0.00
2022-09-15T01:02:42.349Z,0.00
2022-09-15T01:03:42.265Z,0.00
2022-09-15T01:04:42.204Z,0.00
2022-09-15T01:05:42.163Z,0.00
2022-09-15T01:06:42.280Z,0.00
2022-09-15T01:07:42.215Z,0.00
2022-09-15T01:08:42.156Z,0.00
2022-09-15T01:09:42.160Z,0.00
2022-09-15T01:10:42.205Z,0.00
2022-09-15T01:11:42.122Z,0.00
2022-09-15T01:12:42.335Z,0.00
2022-09-15T01:13:43.142Z,0.00
2022-09-15T01:14:42.089Z,0.00
2022-09-15T01:15:42.121Z,0.00
2022-09-15T01:16:42.160Z,0.00
2022-09-15T01:17:42.096Z,0.00
2022-09-15T01:18:42.015Z,0.00
2022-09-15T01:19:42.531Z,0.00
2022-09-15T01:20:42.082Z,0.00
2022-09-15T01:21:41.974Z,0.00
2022-09-15T01:22:42.048Z,0.00
2022-09-15T01:23:41.983Z,0.00
2022-09-15T01:24:41.987Z,0.00
2022-09-15T01:25:41.963Z,0.00
2022-09-15T01:26:42.014Z,0.00
2022-09-15T01:27:43.011Z,0.00
2022-09-15T01:28:43.766Z,0.00
2022-09-15T01:29:42.195Z,0.00
2022-09-15T01:30:42.327Z,0.00
2022-09-15T01:31:43.329Z,0.00
2022-09-15T01:32:41.909Z,0.00
2022-09-15T01:33:41.940Z,0.00
2022-09-15T01:34:42.428Z,0.00
2022-09-15T01:35:41.864Z,0.00
2022-09-15T01:36:41.829Z,0.00
2022-09-15T01:37:42.078Z,0.00
2022-09-15T01:38:42.078Z,0.00
2022-09-15T01:39:41.890Z,0.00
2022-09-15T01:40:41.888Z,0.00
2022-09-15T01:41:41.998Z,0.00
2022-09-15T01:42:42.726Z,0.00
2022-09-15T01:43:42.010Z,0.00
2022-09-15T01:44:41.782Z,0.00
2022-09-15T01:45:41.849Z,0.00
2022-09-15T01:46:41.829Z,0.00
2022-09-15T01:47:41.748Z,0.00
2022-09-15T01:48:41.702Z,0.00
2022-09-15T01:49:41.778Z,0.00
2022-09-15T01:50:41.756Z,0.00
2022-09-15T01:51:41.780Z,0.00
2022-09-15T01:52:41.667Z,0.00
2022-09-15T01:53:41.739Z,0.00
2022-09-15T01:54:41.626Z,0.00
2022-09-15T01:55:41.990Z,0.00
2022-09-15T01:56:41.794Z,0.00
2022-09-15T01:57:41.703Z,0.00
2022-09-15T01:58:41.603Z,0.00
2022-09-15T01:59:41.609Z,0.00
2022-09-15T02:00:41.618Z,0.00
2022-09-15T02:01:42.150Z,0.00
2022-09-15T02:02:41.626Z,0.00
2022-09-15T02:03:41.767Z,0.00
2022-09-15T02:04:42.468Z,0.00
2022-09-15T02:05:41.568Z,0.00
2022-09-15T02:06:41.663Z,0.00
2022-09-15T02:07:43.221Z,0.00
2022-09-15T02:08:41.626Z,0.00
2022-09-15T02:09:41.584Z,0.00
2022-09-15T02:10:41.496Z,0.00
2022-09-15T02:11:41.596Z,0.00
2022-09-15T02:12:41.497Z,0.00
2022-09-15T02:13:42.029Z,0.00
2022-09-15T02:14:41.523Z,0.00
2022-09-15T02:15:41.524Z,0.00
2022-09-15T02:16:41.477Z,0.00
2022-09-15T02:17:41.554Z,0.00
2022-09-15T02:18:41.439Z,0.00
2022-09-15T02:19:41.641Z,0.00
2022-09-15T02:20:41.450Z,0.00
2022-09-15T02:21:41.455Z,0.00
2022-09-15T02:22:41.368Z,0.00
2022-09-15T02:23:41.459Z,0.00
2022-09-15T02:24:42.196Z,0.00
2022-09-15T02:25:41.487Z,0.00
2022-09-15T02:26:41.395Z,0.00
2022-09-15T02:27:41.408Z,0.00
2022-09-15T02:28:41.312Z,0.00
2022-09-15T02:29:41.320Z,0.00
2022-09-15T02:30:41.315Z,0.00
2022-09-15T02:31:41.355Z,0.00
2022-09-15T02:32:41.324Z,0.00
2022-09-15T02:33:41.269Z,0.00
2022-09-15T02:34:41.166Z,0.00
2022-09-15T02:35:41.916Z,0.00
2022-09-15T02:36:41.227Z,0.00
2022-09-15T02:37:41.259Z,0.00
2022-09-15T02:38:41.312Z,0.00
2022-09-15T02:39:41.508Z,0.00
2022-09-15T02:40:41.214Z,0.00
2022-09-15T02:41:41.115Z,0.00
2022-09-15T02:42:41.192Z,0.00
2022-09-15T02:43:41.132Z,0.00
2022-09-15T02:44:41.077Z,0.00
2022-09-15T02:45:41.149Z,0.00
2022-09-15T02:46:41.148Z,0.00
2022-09-15T02:47:41.225Z,0.00
2022-09-15T02:48:41.061Z,0.00
2022-09-15T02:49:41.885Z,0.00
2022-09-15T02:50:41.043Z,0.00
2022-09-15T02:51:41.041Z,0.00
2022-09-15T02:52:41.053Z,0.00
2022-09-15T02:53:41.339Z,0.00
2022-09-15T02:54:41.002Z,0.00
2022-09-15T02:55:40.999Z,0.00
2022-09-15T02:56:41.085Z,0.00
2022-09-15T02:57:40.987Z,0.00
2022-09-15T02:58:40.988Z,0.00
2022-09-15T02:59:41.026Z,0.00
2022-09-15T03:00:41.061Z,0.00
2022-09-15T03:01:40.963Z,0.00
2022-09-15T03:02:41.000Z,0.00
2022-09-15T03:03:43.003Z,0.00
2022-09-15T03:04:41.061Z,0.00
2022-09-15T03:05:40.874Z,0.00
2022-09-15T03:06:40.969Z,0.00
2022-09-15T03:07:40.874Z,0.00
2022-09-15T03:08:40.897Z,0.00
2022-09-15T03:09:40.838Z,0.00
2022-09-15T03:10:40.910Z,0.00
2022-09-15T03:11:41.610Z,0.00
2022-09-15T03:12:40.959Z,0.00
2022-09-15T03:13:41.030Z,0.00
2022-09-15T03:14:40.970Z,0.00
2022-09-15T03:15:41.291Z,0.00
2022-09-15T03:16:40.942Z,0.00
2022-09-15T03:17:40.957Z,0.00
2022-09-15T03:18:41.678Z,0.00
2022-09-15T03:19:40.771Z,0.00
2022-09-15T03:20:41.585Z,0.00
2022-09-15T03:21:40.869Z,0.00
2022-09-15T03:22:40.942Z,0.00
2022-09-15T03:23:41.169Z,0.00
2022-09-15T03:24:41.000Z,0.00
2022-09-15T03:25:40.804Z,0.00
2022-09-15T03:26:41.312Z,0.00
2022-09-15T03:27:40.718Z,0.00
2022-09-15T03:28:40.728Z,0.00
2022-09-15T03:29:41.036Z,0.00
2022-09-15T03:30:40.741Z,0.00
2022-09-15T03:31:40.663Z,0.00
2022-09-15T03:32:40.643Z,0.00
2022-09-15T03:33:40.651Z,0.00
2022-09-15T03:34:40.753Z,0.00
2022-09-15T03:35:40.670Z,0.00
2022-09-15T03:36:40.662Z,0.00
2022-09-15T03:37:41.184Z,0.00
2022-09-15T03:38:40.526Z,0.00
2022-09-15T03:39:40.586Z,0.00
2022-09-15T03:40:40.483Z,0.00
2022-09-15T03:41:42.129Z,0.00
2022-09-15T03:42:40.550Z,0.00
2022-09-15T03:43:40.498Z,0.00
2022-09-15T03:44:40.604Z,0.00
2022-09-15T03:45:40.566Z,0.00
2022-09-15T03:46:40.420Z,0.00
2022-09-15T03:47:40.430Z,0.00
2022-09-15T03:48:40.484Z,0.00
2022-09-15T03:49:40.397Z,0.00
2022-09-15T03:50:40.398Z,0.00
2022-09-15T03:51:40.404Z,0.00
2022-09-15T03:52:41.170Z,0.00
2022-09-15T03:53:40.413Z,0.00
2022-09-15T03:54:40.370Z,0.00
2022-09-15T03:55:40.530Z,0.00
2022-09-15T03:56:40.332Z,0.00
2022-09-15T03:57:40.295Z,0.00
2022-09-15T03:58:40.295Z,0.00
2022-09-15T03:59:40.306Z,0.00
2022-09-15T04:00:40.303Z,0.00
2022-09-15T04:01:40.497Z,0.00
2022-09-15T04:02:40.638Z,0.00
2022-09-15T04:03:45.299Z,0.00
2022-09-15T04:04:40.291Z,0.00
2022-09-15T04:05:40.290Z,0.00
2022-09-15T04:06:40.343Z,0.00
2022-09-15T04:07:40.655Z,0.00
2022-09-15T04:08:40.215Z,0.00
2022-09-15T04:09:40.164Z,0.00
2022-09-15T04:10:40.262Z,0.00
2022-09-15T04:11:40.174Z,0.00
2022-09-15T04:12:40.139Z,0.00
2022-09-15T04:13:40.497Z,0.00
2022-09-15T04:14:40.328Z,0.00
2022-09-15T04:15:40.098Z,0.00
2022-09-15T04:16:40.276Z,0.00
2022-09-15T04:17:40.113Z,0.00
2022-09-15T04:18:40.073Z,0.00
2022-09-15T04:19:40.057Z,0.00
2022-09-15T04:20:40.186Z,0.00
2022-09-15T04:21:40.073Z,0.00
2022-09-15T04:22:40.035Z,0.00
2022-09-15T04:23:40.043Z,0.00
2022-09-15T04:24:39.986Z,0.00
2022-09-15T04:25:40.062Z,0.00
2022-09-15T04:26:39.999Z,0.00
2022-09-15T04:27:40.113Z,0.00
2022-09-15T04:28:40.020Z,0.00
2022-09-15T04:29:39.988Z,0.00
2022-09-15T04:30:39.988Z,0.00
2022-09-15T04:31:40.036Z,0.00
2022-09-15T04:32:40.012Z,0.00
2022-09-15T04:33:40.021Z,0.00
2022-09-15T04:34:41.511Z,0.00
2022-09-15T04:35:39.956Z,0.00
2022-09-15T04:36:39.866Z,0.00
2022-09-15T04:37:39.869Z,0.00
2022-09-15T04:38:40.052Z,0.00
2022-09-15T04:39:39.847Z,0.00
2022-09-15T04:40:40.516Z,0.00
2022-09-15T04:41:40.617Z,0.00
2022-09-15T04:42:39.870Z,0.00
2022-09-15T04:43:40.020Z,0.00
2022-09-15T04:44:39.924Z,0.00
2022-09-15T04:45:39.790Z,0.00
2022-09-15T04:46:39.947Z,0.00
2022-09-15T04:47:40.752Z,0.00
2022-09-15T04:48:39.841Z,0.00
2022-09-15T04:49:40.020Z,0.00
2022-09-15T04:50:39.929Z,0.00
2022-09-15T04:51:39.667Z,0.00
2022-09-15T04:52:39.768Z,0.00
2022-09-15T04:53:39.736Z,0.00
2022-09-15T04:54:39.775Z,0.00
2022-09-15T04:55:40.055Z,0.00
2022-09-15T04:56:39.890Z,0.00
2022-09-15T04:57:39.796Z,0.00
2022-09-15T04:58:39.697Z,0.00
2022-09-15T04:59:39.707Z,0.00
2022-09-15T05:00:39.750Z,0.00
2022-09-15T05:01:39.970Z,0.00
2022-09-15T05:02:39.598Z,0.00
2022-09-15T05:03:39.611Z,0.00
2022-09-15T05:04:39.611Z,0.00
2022-09-15T05:05:39.551Z,0.00
2022-09-15T05:06:39.661Z,0.00
2022-09-15T05:07:40.586Z,0.00
2022-09-15T05:08:39.535Z,0.00
2022-09-15T05:09:39.577Z,0.00
2022-09-15T05:10:39.677Z,0.00
2022-09-15T05:11:39.495Z,0.00
2022-09-15T05:12:39.588Z,0.00
2022-09-15T05:13:40.109Z,0.00
2022-09-15T05:14:40.164Z,0.00
2022-09-15T05:15:39.503Z,0.00
2022-09-15T05:16:39.469Z,0.00
2022-09-15T05:17:40.210Z,0.00
2022-09-15T05:18:39.435Z,0.00
2022-09-15T05:19:39.444Z,0.00
2022-09-15T05:20:39.435Z,0.00
2022-09-15T05:21:39.437Z,0.00
2022-09-15T05:22:41.843Z,0.00
2022-09-15T05:23:39.351Z,0.00
2022-09-15T05:24:39.725Z,0.00
2022-09-15T05:25:39.566Z,0.00
2022-09-15T05:26:39.370Z,0.00
2022-09-15T05:27:40.157Z,0.00
2022-09-15T05:28:39.960Z,0.00
2022-09-15T05:29:39.386Z,0.00
2022-09-15T05:30:43.658Z,0.00
2022-09-15T05:31:40.025Z,0.00
2022-09-15T05:32:39.263Z,0.00
2022-09-15T05:33:39.987Z,0.00
2022-09-15T05:34:39.278Z,0.00
2022-09-15T05:35:39.282Z,0.00
2022-09-15T05:36:39.229Z,0.00
2022-09-15T05:37:39.244Z,0.00
2022-09-15T05:38:39.202Z,0.00
2022-09-15T05:39:39.209Z,0.00
2022-09-15T05:40:39.207Z,0.00
2022-09-15T05:41:39.274Z,0.00
2022-09-15T05:42:39.160Z,0.00
2022-09-15T05:43:39.171Z,0.00
2022-09-15T05:44:39.142Z,0.00
2022-09-15T05:45:39.292Z,0.00
2022-09-15T05:46:39.240Z,0.00
2022-09-15T05:47:39.157Z,0.00
2022-09-15T05:48:39.111Z,0.00
2022-09-15T05:49:39.107Z,0.00
2022-09-15T05:50:39.079Z,0.00
2022-09-15T05:51:39.161Z,0.00
2022-09-15T05:52:39.678Z,0.00
2022-09-15T05:53:39.505Z,0.00
2022-09-15T05:54:40.002Z,0.00
2022-09-15T05:55:39.044Z,0.00
2022-09-15T05:56:39.607Z,0.00
2022-09-15T05:57:38.997Z,0.00
2022-09-15T05:58:39.073Z,0.00
2022-09-15T05:59:39.073Z,0.00
2022-09-15T06:00:38.943Z,0.00
2022-09-15T06:01:38.982Z,0.00
2022-09-15T06:02:39.039Z,0.00
2022-09-15T06:03:39.032Z,0.00
2022-09-15T06:04:38.904Z,0.00
2022-09-15T06:05:38.944Z,0.00
2022-09-15T06:06:39.009Z,0.00
2022-09-15T06:07:38.884Z,0.00
2022-09-15T06:08:42.448Z,0.00
2022-09-15T06:09:38.871Z,0.00
2022-09-15T06:10:38.845Z,0.00
2022-09-15T06:11:38.852Z,0.00
2022-09-15T06:12:38.956Z,0.00
2022-09-15T06:13:38.905Z,0.00
2022-09-15T06:14:38.799Z,0.00
2022-09-15T06:15:38.773Z,0.00
2022-09-15T06:16:38.798Z,0.00
2022-09-15T06:17:38.815Z,0.00
2022-09-15T06:18:38.763Z,0.00
2022-09-15T06:19:38.770Z,0.00
2022-09-15T06:20:38.747Z,0.00
2022-09-15T06:21:38.749Z,0.00
2022-09-15T06:22:38.747Z,0.00
2022-09-15T06:23:38.752Z,0.00
2022-09-15T06:24:38.697Z,0.00
2022-09-15T06:25:38.707Z,0.00
2022-09-15T06:26:38.710Z,0.00
2022-09-15T06:27:38.680Z,0.00
2022-09-15T06:28:38.624Z,0.00
2022-09-15T06:29:38.631Z,0.00
2022-09-15T06:30:38.638Z,0.00
2022-09-15T06:31:38.718Z,0.00
2022-09-15T06:32:38.618Z,0.00
2022-09-15T06:33:38.608Z,0.00
2022-09-15T06:34:38.567Z,0.00
2022-09-15T06:35:39.360Z,0.00
2022-09-15T06:36:38.575Z,0.00
2022-09-15T06:37:38.608Z,0.00
2022-09-15T06:38:39.367Z,0.00
2022-09-15T06:39:39.575Z,0.00
2022-09-15T06:40:38.560Z,0.00
2022-09-15T06:42:00.823Z,0.00
2022-09-15T06:42:38.682Z,0.00
2022-09-15T06:43:38.604Z,0.00
2022-09-15T06:44:38.579Z,0.00
2022-09-15T06:45:38.585Z,0.00
2022-09-15T06:46:38.542Z,0.00
2022-09-15T06:47:38.499Z,0.00
2022-09-15T06:48:38.606Z,0.00
2022-09-15T06:49:38.511Z,0.00
2022-09-15T06:50:38.523Z,0.00
2022-09-15T06:51:38.540Z,0.00
2022-09-15T06:52:38.422Z,0.00
2022-09-15T06:53:38.437Z,0.00
2022-09-15T06:54:38.454Z,0.00
2022-09-15T06:55:38.451Z,0.00
2022-09-15T06:56:38.572Z,0.00
2022-09-15T06:57:38.459Z,0.00
2022-09-15T06:58:38.573Z,0.00
2022-09-15T06:59:38.368Z,0.00
2022-09-15T07:00:38.392Z,0.00
2022-09-15T07:01:38.386Z,0.00
2022-09-15T07:02:38.710Z,0.00
2022-09-15T07:03:38.414Z,0.00
2022-09-15T07:04:38.301Z,0.00
2022-09-15T07:05:39.235Z,0.00
2022-09-15T07:06:38.326Z,0.00
2022-09-15T07:07:38.426Z,0.00
2022-09-15T07:08:38.236Z,0.00
2022-09-15T07:09:41.168Z,0.00
2022-09-15T07:10:38.252Z,0.00
2022-09-15T07:11:38.256Z,0.00
2022-09-15T07:12:38.592Z,0.00
2022-09-15T07:13:38.261Z,0.00
2022-09-15T07:14:38.277Z,0.00
2022-09-15T07:15:38.279Z,0.00
2022-09-15T07:16:38.458Z,0.00
2022-09-15T07:17:38.122Z,0.00
2022-09-15T07:18:42.874Z,0.00
2022-09-15T07:19:38.200Z,0.00
2022-09-15T07:20:38.106Z,0.00
2022-09-15T07:21:38.158Z,0.00
2022-09-15T07:22:38.121Z,0.00
2022-09-15T07:23:38.063Z,0.00
2022-09-15T07:24:38.130Z,0.00
2022-09-15T07:25:38.148Z,0.00
2022-09-15T07:26:38.372Z,0.00
2022-09-15T07:27:38.497Z,0.00
2022-09-15T07:28:38.164Z,0.00
2022-09-15T07:29:38.078Z,0.00
2022-09-15T07:30:38.082Z,0.00
2022-09-15T07:31:38.059Z,0.00
2022-09-15T07:32:37.995Z,0.00
2022-09-15T07:33:38.104Z,0.00
2022-09-15T07:34:38.007Z,0.00
2022-09-15T07:35:37.988Z,0.00
2022-09-15T07:36:38.118Z,0.00
2022-09-15T07:37:38.045Z,0.00
2022-09-15T07:38:37.941Z,0.00
2022-09-15T07:39:37.931Z,0.00
2022-09-15T07:40:37.997Z,0.00
2022-09-15T07:41:37.965Z,0.00
2022-09-15T07:42:37.968Z,0.00
2022-09-15T07:43:37.869Z,0.00
2022-09-15T07:44:37.847Z,0.00
2022-09-15T07:45:37.886Z,0.00
2022-09-15T07:46:37.904Z,0.00
2022-09-15T07:47:37.881Z,0.00
2022-09-15T07:48:37.901Z,0.00
2022-09-15T07:49:37.796Z,0.00
2022-09-15T07:50:37.825Z,0.00
2022-09-15T07:51:37.814Z,0.00
2022-09-15T07:52:37.824Z,0.00
2022-09-15T07:53:37.823Z,0.00
2022-09-15T07:54:37.827Z,0.00
2022-09-15T07:55:37.735Z,0.00
2022-09-15T07:56:38.666Z,0.00
2022-09-15T07:57:37.749Z,0.00
2022-09-15T07:58:37.752Z,0.00
2022-09-15T07:59:41.099Z,0.00
2022-09-15T08:00:37.827Z,0.00
2022-09-15T08:01:37.747Z,0.00
2022-09-15T08:02:37.670Z,0.00
2022-09-15T08:03:38.098Z,0.00
2022-09-15T08:04:38.206Z,0.00
2022-09-15T08:05:41.254Z,0.00
2022-09-15T08:06:38.749Z,0.00
2022-09-15T08:07:37.595Z,0.00
2022-09-15T08:08:37.615Z,0.00
2022-09-15T08:09:38.634Z,0.00
2022-09-15T08:10:37.632Z,0.00
2022-09-15T08:11:37.634Z,0.00
2022-09-15T08:12:38.667Z,0.00
2022-09-15T08:13:38.068Z,0.00
2022-09-15T08:14:37.547Z,0.00
2022-09-15T08:15:37.610Z,0.00
2022-09-15T08:16:37.609Z,0.00
2022-09-15T08:17:37.843Z,0.00
2022-09-15T08:18:37.492Z,0.00
2022-09-15T08:19:37.484Z,0.00
2022-09-15T08:20:37.598Z,0.00
2022-09-15T08:21:37.599Z,0.00
2022-09-15T08:22:37.494Z,0.00
2022-09-15T08:23:37.609Z,0.00
2022-09-15T08:24:37.409Z,0.00
2022-09-15T08:25:38.036Z,0.00
2022-09-15T08:26:37.420Z,0.00
2022-09-15T08:27:39.072Z,0.00
2022-09-15T08:28:37.444Z,0.00
2022-09-15T08:29:37.555Z,0.00
2022-09-15T08:30:37.347Z,0.00
2022-09-15T08:31:37.450Z,0.00
2022-09-15T08:32:37.465Z,0.00
2022-09-15T08:33:39.835Z,0.00
2022-09-15T08:34:38.098Z,0.00
2022-09-15T08:35:37.589Z,0.00
2022-09-15T08:36:37.284Z,0.00
2022-09-15T08:37:37.299Z,0.00
2022-09-15T08:38:37.300Z,0.00
2022-09-15T08:39:37.412Z,0.00
2022-09-15T08:40:37.384Z,0.00
2022-09-15T08:41:37.735Z,0.00
2022-09-15T08:42:39.647Z,0.00
2022-09-15T08:43:37.226Z,0.00
2022-09-15T08:44:37.234Z,0.00
2022-09-15T08:45:37.248Z,0.00
2022-09-15T08:46:37.407Z,0.00
2022-09-15T08:47:37.668Z,0.00
2022-09-15T08:48:37.370Z,0.00
2022-09-15T08:49:50.992Z,0.00
2022-09-15T08:50:37.187Z,0.00
2022-09-15T08:51:37.186Z,0.00
2022-09-15T08:52:37.103Z,0.00
2022-09-15T08:53:37.604Z,0.00
2022-09-15T08:54:37.096Z,0.00
2022-09-15T08:55:37.205Z,0.00
2022-09-15T08:56:37.092Z,0.00
2022-09-15T08:57:37.120Z,0.00
2022-09-15T08:58:37.123Z,0.00
2022-09-15T08:59:37.009Z,1.00
2022-09-15T09:00:37.303Z,0.00
2022-09-15T09:01:37.134Z,0.00
2022-09-15T09:02:37.067Z,1.00
2022-09-15T09:03:36.960Z,1.00
2022-09-15T09:04:36.922Z,1.00
2022-09-15T09:05:37.131Z,2.00
2022-09-15T09:06:36.933Z,0.00
2022-09-15T09:07:37.140Z,0.00
2022-09-15T09:08:36.968Z,0.00
2022-09-15T09:09:36.903Z,2.00
2022-09-15T09:10:37.167Z,1.00
2022-09-15T09:11:36.920Z,0.00
2022-09-15T09:12:36.923Z,0.00
2022-09-15T09:13:36.831Z,7.00
2022-09-15T09:14:36.784Z,6.00
2022-09-15T09:15:36.878Z,1.00
2022-09-15T09:16:37.368Z,1.00
2022-09-15T09:17:37.723Z,1.00
2022-09-15T09:18:39.013Z,2.00
2022-09-15T09:19:36.814Z,2.00
2022-09-15T09:20:36.781Z,3.00
2022-09-15T09:21:37.133Z,3.00
2022-09-15T09:22:38.218Z,9.00
2022-09-15T09:23:37.045Z,9.00
2022-09-15T09:24:37.521Z,6.00
2022-09-15T09:25:37.734Z,6.00
2022-09-15T09:26:37.744Z,5.00
2022-09-15T09:27:36.766Z,5.00
2022-09-15T09:28:38.308Z,5.00
2022-09-15T09:29:36.738Z,5.00
2022-09-15T09:30:36.747Z,5.00
2022-09-15T09:31:36.642Z,5.00
2022-09-15T09:32:36.652Z,8.00
2022-09-15T09:33:38.550Z,4.00
2022-09-15T09:34:36.604Z,3.00
2022-09-15T09:35:36.563Z,4.00
2022-09-15T09:36:36.570Z,5.00
2022-09-15T09:37:36.682Z,9.00
2022-09-15T09:38:36.533Z,13.00
2022-09-15T09:39:36.594Z,13.00
2022-09-15T09:40:36.726Z,8.00
2022-09-15T09:41:36.569Z,12.00
2022-09-15T09:42:36.563Z,8.00
2022-09-15T09:43:36.513Z,10.00
2022-09-15T09:44:37.243Z,11.00
2022-09-15T09:45:36.673Z,11.00
2022-09-15T09:46:36.537Z,12.00
2022-09-15T09:47:36.551Z,9.00
2022-09-15T09:48:36.655Z,14.00
2022-09-15T09:49:36.461Z,10.00
2022-09-15T09:50:36.465Z,14.00
2022-09-15T09:51:36.408Z,13.00
2022-09-15T09:52:36.684Z,5.00
2022-09-15T09:53:36.378Z,9.00
2022-09-15T09:54:36.451Z,9.00
2022-09-15T09:55:36.435Z,6.00
2022-09-15T09:56:36.457Z,6.00
2022-09-15T09:57:40.394Z,6.00
2022-09-15T09:58:36.457Z,9.00
2022-09-15T09:59:36.357Z,6.00
2022-09-15T10:00:36.327Z,7.00
2022-09-15T10:01:36.732Z,7.00
2022-09-15T10:02:37.303Z,7.00
2022-09-15T10:03:36.387Z,7.00
2022-09-15T10:04:36.459Z,4.00
2022-09-15T10:05:36.410Z,4.00
2022-09-15T10:06:36.602Z,5.00
2022-09-15T10:07:36.268Z,4.00
2022-09-15T10:08:36.326Z,6.00
2022-09-15T10:09:36.334Z,4.00
2022-09-15T10:10:36.230Z,6.00
2022-09-15T10:11:36.219Z,8.00
2022-09-15T10:12:36.236Z,7.00
2022-09-15T10:13:37.261Z,6.00
2022-09-15T10:14:36.257Z,5.00
2022-09-15T10:15:36.266Z,10.00
2022-09-15T10:16:36.214Z,11.00
2022-09-15T10:17:36.168Z,10.00
2022-09-15T10:18:36.183Z,9.00
2022-09-15T10:19:36.899Z,10.00
2022-09-15T10:20:36.219Z,11.00
2022-09-15T10:21:36.097Z,8.00
2022-09-15T10:22:36.820Z,13.00
2022-09-15T10:23:36.122Z,7.00
2022-09-15T10:24:36.117Z,8.00
2022-09-15T10:25:57.555Z,8.00
2022-09-15T10:26:36.125Z,8.00
2022-09-15T10:27:36.028Z,9.00
2022-09-15T10:28:36.127Z,8.00
2022-09-15T10:29:36.033Z,7.00
2022-09-15T10:30:36.285Z,6.00
2022-09-15T10:31:36.197Z,4.00
2022-09-15T10:32:35.937Z,3.00
2022-09-15T10:33:36.003Z,5.00
2022-09-15T10:34:35.969Z,9.00
2022-09-15T10:35:36.609Z,11.00
2022-09-15T10:36:35.986Z,6.00
2022-09-15T10:37:36.227Z,11.00
2022-09-15T10:38:35.897Z,10.00
2022-09-15T10:39:35.914Z,19.00
2022-09-15T10:40:36.018Z,25.00
2022-09-15T10:41:36.021Z,24.00
2022-09-15T10:42:35.919Z,14.00
2022-09-15T10:43:36.140Z,18.00
2022-09-15T10:44:35.943Z,32.00
2022-09-15T10:45:35.881Z,22.00
2022-09-15T10:46:39.285Z,18.00
2022-09-15T10:47:35.956Z,17.00
2022-09-15T10:48:35.862Z,11.00
2022-09-15T10:49:35.971Z,11.00
2022-09-15T10:50:36.095Z,20.00
2022-09-15T10:51:35.811Z,13.00
2022-09-15T10:52:35.821Z,8.00
2022-09-15T10:53:35.821Z,7.00
2022-09-15T10:54:35.967Z,11.00
2022-09-15T10:55:52.204Z,11.00
2022-09-15T10:56:35.647Z,13.00
2022-09-15T10:57:35.655Z,11.00
2022-09-15T10:58:35.724Z,11.00
2022-09-15T10:59:35.763Z,19.00
2022-09-15T11:00:36.941Z,22.00
2022-09-15T11:01:36.695Z,14.00
2022-09-15T11:02:35.729Z,9.00
2022-09-15T11:03:35.586Z,13.00
2022-09-15T11:04:36.507Z,14.00
2022-09-15T11:05:36.317Z,17.00
2022-09-15T11:06:35.612Z,20.00
2022-09-15T11:07:35.593Z,13.00
2022-09-15T11:08:36.109Z,18.00
2022-09-15T11:09:35.532Z,23.00
2022-09-15T11:10:36.418Z,14.00
2022-09-15T11:11:35.726Z,22.00
2022-09-15T11:12:36.444Z,26.00
2022-09-15T11:13:35.630Z,32.00
2022-09-15T11:14:35.566Z,22.00
2022-09-15T11:15:36.500Z,13.00
2022-09-15T11:16:35.935Z,12.00
2022-09-15T11:17:37.724Z,17.00
2022-09-15T11:18:35.558Z,22.00
2022-09-15T11:19:35.394Z,33.00
2022-09-15T11:20:35.466Z,29.00
2022-09-15T11:21:35.470Z,11.00
2022-09-15T11:22:35.488Z,9.00
2022-09-15T11:23:36.196Z,23.00
2022-09-15T11:24:35.504Z,13.00
2022-09-15T11:25:35.403Z,15.00
2022-09-15T11:26:35.336Z,23.00
2022-09-15T11:27:35.413Z,41.00
2022-09-15T11:28:35.407Z,26.00
2022-09-15T11:29:38.692Z,16.00
2022-09-15T11:30:35.429Z,20.00
2022-09-15T11:31:35.615Z,32.00
2022-09-15T11:32:35.359Z,51.00
2022-09-15T11:33:35.882Z,45.00
2022-09-15T11:34:35.588Z,24.00
2022-09-15T11:35:38.776Z,29.00
2022-09-15T11:36:35.302Z,34.00
2022-09-15T11:37:35.272Z,45.00
2022-09-15T11:38:36.096Z,28.00
2022-09-15T11:39:35.286Z,26.00
2022-09-15T11:40:35.357Z,66.00
2022-09-15T11:41:35.436Z,67.00
2022-09-15T11:42:35.310Z,50.00
2022-09-15T11:43:35.310Z,32.00
2022-09-15T11:44:35.326Z,50.00
2022-09-15T11:45:35.350Z,55.00
2022-09-15T11:46:35.267Z,60.00
2022-09-15T11:47:36.179Z,47.00
2022-09-15T11:48:35.281Z,44.00
2022-09-15T11:49:35.339Z,35.00
2022-09-15T11:50:35.156Z,33.00
2022-09-15T11:51:35.686Z,62.00
2022-09-15T11:52:35.362Z,50.00
2022-09-15T11:53:35.278Z,46.00
2022-09-15T11:54:35.521Z,38.00
2022-09-15T11:55:35.508Z,27.00
2022-09-15T11:56:36.229Z,24.00
2022-09-15T11:57:39.218Z,29.00
2022-09-15T11:58:35.846Z,44.00
2022-09-15T11:59:37.402Z,37.00
2022-09-15T12:00:35.137Z,45.00
2022-09-15T12:01:35.184Z,45.00
2022-09-15T12:02:35.223Z,35.00
2022-09-15T12:03:36.180Z,27.00
2022-09-15T12:04:35.052Z,32.00
2022-09-15T12:05:38.839Z,36.00
2022-09-15T12:06:35.814Z,35.00
2022-09-15T12:07:34.967Z,36.00
2022-09-15T12:08:34.983Z,36.00
2022-09-15T12:09:35.507Z,33.00
2022-09-15T12:10:35.086Z,27.00
2022-09-15T12:11:35.008Z,21.00
2022-09-15T12:12:35.014Z,20.00
2022-09-15T12:13:35.010Z,19.00
2022-09-15T12:14:35.839Z,17.00
2022-09-15T12:15:35.945Z,15.00
2022-09-15T12:16:34.921Z,27.00
2022-09-15T12:17:34.932Z,30.00
2022-09-15T12:18:39.351Z,34.00
2022-09-15T12:19:34.893Z,30.00
2022-09-15T12:20:34.847Z,22.00
2022-09-15T12:21:35.114Z,27.00
2022-09-15T12:22:35.622Z,21.00
2022-09-15T12:23:34.866Z,25.00
2022-09-15T12:24:34.768Z,19.00
2022-09-15T12:25:34.882Z,16.00
2022-09-15T12:26:34.805Z,15.00
2022-09-15T12:27:35.309Z,17.00
2022-09-15T12:28:34.832Z,21.00
2022-09-15T12:29:38.066Z,20.00
2022-09-15T12:30:34.764Z,30.00
2022-09-15T12:31:34.743Z,30.00
2022-09-15T12:32:34.727Z,24.00
2022-09-15T12:33:34.832Z,21.00
2022-09-15T12:34:34.844Z,20.00
2022-09-15T12:35:34.702Z,38.00
2022-09-15T12:36:34.652Z,50.00
2022-09-15T12:37:34.613Z,34.00
2022-09-15T12:38:35.240Z,32.00
2022-09-15T12:39:34.828Z,26.00
2022-09-15T12:40:34.738Z,19.00
2022-09-15T12:41:34.738Z,15.00
2022-09-15T12:42:34.543Z,22.00
2022-09-15T12:43:34.549Z,46.00
2022-09-15T12:44:34.658Z,40.00
2022-09-15T12:45:34.705Z,80.00
2022-09-15T12:46:34.674Z,42.00
2022-09-15T12:47:34.680Z,30.00
2022-09-15T12:48:34.633Z,25.00
2022-09-15T12:49:34.529Z,26.00
2022-09-15T12:50:34.566Z,42.00
2022-09-15T12:51:34.555Z,26.00
2022-09-15T12:52:34.822Z,36.00
2022-09-15T12:54:34.572Z,14.00
2022-09-15T12:55:34.512Z,38.00
2022-09-15T12:56:34.433Z,32.00
2022-09-15T12:57:34.380Z,25.00
2022-09-15T12:58:34.386Z,34.00
2022-09-15T12:59:34.350Z,43.00
2022-09-15T13:00:34.404Z,100.00
2022-09-15T13:01:34.494Z,125.00
2022-09-15T13:02:34.448Z,104.00
2022-09-15T13:03:34.559Z,25.00
2022-09-15T13:04:34.482Z,31.00
2022-09-15T13:05:34.384Z,98.00
2022-09-15T13:06:34.381Z,68.00
2022-09-15T13:07:34.522Z,46.00
2022-09-15T13:08:34.318Z,51.00
2022-09-15T13:09:34.402Z,55.00
2022-09-15T13:10:34.231Z,46.00
2022-09-15T13:11:34.523Z,34.00
2022-09-15T13:12:34.280Z,35.00
2022-09-15T13:13:34.444Z,39.00